Time;durP1;ratioP1;P1;durP2;ratioP2;P2;SDS_P1;SDS_P2;PMS_P1;PMS_P2;Temp;Humidity;BMP_temperature;BMP_pressure;BME280_temperature;BME280_humidity;BME280_pressure;Samples;Min_cycle;Max_cycle;Signal;HPM_P1;HPM_P2
2022/08/26 00:01:01;;;;;;;10.50;7.13;;;20.30;86.10;;;;;;5063037;28;20467;-49
2022/08/26 00:03:27;;;;;;;8.90;6.07;;;20.30;83.70;;;;;;5063522;28;20466;-50
2022/08/26 00:05:54;;;;;;;14.83;7.00;;;20.30;79.30;;;;;;5070917;28;20460;-50
2022/08/26 00:08:23;;;;;;;15.97;7.13;;;20.30;75.70;;;;;;5063535;28;20535;-50
2022/08/26 00:10:49;;;;;;;14.80;7.63;;;20.30;72.10;;;;;;5066313;28;20483;-50
2022/08/26 00:13:17;;;;;;;7.07;6.37;;;20.30;69.20;;;;;;5068699;28;20489;-50
2022/08/26 00:15:45;;;;;;;17.17;7.00;;;20.30;66.90;;;;;;5065007;28;20482;-50
2022/08/26 00:18:12;;;;;;;13.40;7.10;;;20.30;66.10;;;;;;5075015;28;20572;-50
2022/08/26 00:20:39;;;;;;;18.33;6.53;;;20.30;63.00;;;;;;5080163;28;20537;-50
2022/08/26 00:23:06;;;;;;;8.87;6.53;;;20.20;60.10;;;;;;5068752;28;20463;-49
2022/08/26 00:25:34;;;;;;;11.30;6.70;;;20.30;56.70;;;;;;5066547;28;20475;-50
2022/08/26 00:28:01;;;;;;;16.97;7.53;;;20.20;54.90;;;;;;5066325;28;20481;-49
2022/08/26 00:30:30;;;;;;;14.30;7.63;;;20.20;54.20;;;;;;5068757;28;20550;-50
2022/08/26 00:32:58;;;;;;;11.70;6.63;;;20.20;52.00;;;;;;5063294;28;20943;-50
2022/08/26 00:35:26;;;;;;;13.23;6.80;;;20.20;50.70;;;;;;5065429;28;20542;-50
2022/08/26 00:37:54;;;;;;;12.93;7.33;;;20.20;49.40;;;;;;5082620;28;20798;-50
2022/08/26 00:40:23;;;;;;;13.13;7.70;;;20.20;46.60;;;;;;5064067;28;20509;-50
2022/08/26 00:42:51;;;;;;;10.23;6.47;;;20.20;44.00;;;;;;5070750;28;20501;-49
2022/08/26 00:45:18;;;;;;;15.70;6.50;;;20.20;42.70;;;;;;5070703;28;20528;-49
2022/08/26 00:47:48;;;;;;;20.37;7.70;;;20.20;41.00;;;;;;5074680;28;20515;-49
2022/08/26 00:50:18;;;;;;;15.03;7.60;;;20.20;39.70;;;;;;5071928;28;21245;-49
2022/08/26 00:52:45;;;;;;;10.33;7.40;;;20.20;40.20;;;;;;5069748;28;20457;-50
2022/08/26 00:55:17;;;;;;;16.33;7.00;;;20.10;38.40;;;;;;5066351;28;20488;-49
2022/08/26 00:57:44;;;;;;;10.10;7.73;;;20.10;36.10;;;;;;5072812;28;20933;-50
2022/08/26 01:00:16;;;;;;;16.67;6.83;;;20.10;34.30;;;;;;5069465;28;20554;-50
2022/08/26 01:02:44;;;;;;;12.93;7.30;;;20.10;31.70;;;;;;5071788;28;20465;-49
2022/08/26 01:05:11;;;;;;;16.73;7.23;;;20.10;29.60;;;;;;5068041;28;20466;-50
2022/08/26 01:07:38;;;;;;;13.80;7.20;;;20.10;29.40;;;;;;5085003;28;20881;-49
2022/08/26 01:10:08;;;;;;;10.60;7.13;;;20.10;27.70;;;;;;5070709;28;20899;-50
2022/08/26 01:12:40;;;;;;;11.57;7.60;;;20.00;28.60;;;;;;5070582;28;20495;-51
2022/08/26 01:15:08;;;;;;;7.93;7.03;;;20.00;26.00;;;;;;5068007;28;20958;-49
2022/08/26 01:17:37;;;;;;;13.67;8.20;;;20.00;24.50;;;;;;5079055;28;20507;-50
2022/08/26 01:20:10;;;;;;;11.00;6.40;;;20.00;22.20;;;;;;5065448;28;20504;-49
2022/08/26 01:22:45;;;;;;;12.17;7.07;;;20.00;20.40;;;;;;5070319;28;20488;-50
2022/08/26 01:25:13;;;;;;;11.13;6.63;;;20.00;21.90;;;;;;5069108;28;20484;-50
2022/08/26 01:27:40;;;;;;;9.37;6.90;;;20.00;20.00;;;;;;5077642;28;20634;-50
2022/08/26 01:30:10;;;;;;;11.60;7.30;;;20.00;85.10;;;;;;5063186;28;20521;-50
2022/08/26 01:32:37;;;;;;;10.23;7.30;;;20.00;99.90;;;;;;5065541;28;20492;-50
2022/08/26 01:35:05;;;;;;;13.83;7.33;;;20.00;99.90;;;;;;5069192;28;20500;-50
2022/08/26 01:37:35;;;;;;;12.10;7.97;;;19.90;99.90;;;;;;5069276;28;20506;-49
2022/08/26 01:40:09;;;;;;;13.43;7.80;;;19.90;99.90;;;;;;5065107;28;20477;-49
2022/08/26 01:42:35;;;;;;;13.77;7.90;;;19.90;99.90;;;;;;5070117;28;20522;-50
2022/08/26 01:45:07;;;;;;;22.93;8.17;;;19.90;99.90;;;;;;5071439;28;20484;-50
2022/08/26 01:47:36;;;;;;;22.13;8.60;;;19.90;99.90;;;;;;5070698;28;20538;-49
2022/08/26 01:50:09;;;;;;;10.33;7.60;;;19.90;99.90;;;;;;5070120;28;20481;-50
2022/08/26 01:52:39;;;;;;;17.70;7.83;;;19.90;99.90;;;;;;5067455;28;20503;-53
2022/08/26 01:55:08;;;;;;;10.00;6.57;;;19.90;99.90;;;;;;5071003;28;20519;-49
2022/08/26 01:57:36;;;;;;;11.53;7.00;;;19.90;99.90;;;;;;5075440;28;20455;-49
2022/08/26 02:00:07;;;;;;;9.03;7.87;;;19.90;99.90;;;;;;5069225;28;20876;-50
2022/08/26 02:02:34;;;;;;;13.27;8.57;;;19.80;99.90;;;;;;5066359;28;20458;-51
2022/08/26 02:05:05;;;;;;;12.77;7.13;;;19.90;99.90;;;;;;5069339;28;20460;-49
2022/08/26 02:07:32;;;;;;;10.33;7.50;;;19.90;99.90;;;;;;5062098;28;21059;-48
2022/08/26 02:10:00;;;;;;;14.33;8.10;;;19.90;99.90;;;;;;5061896;28;20472;-50
2022/08/26 02:12:28;;;;;;;17.77;8.57;;;19.90;99.90;;;;;;5071095;28;20490;-51
2022/08/26 02:14:57;;;;;;;16.63;8.00;;;19.80;99.90;;;;;;5071645;28;21023;-49
2022/08/26 02:17:30;;;;;;;9.20;7.50;;;19.80;99.90;;;;;;5078882;28;20511;-49
2022/08/26 02:19:57;;;;;;;17.20;9.00;;;19.80;99.90;;;;;;5062777;28;20535;-50
2022/08/26 02:22:25;;;;;;;16.93;8.07;;;19.80;99.90;;;;;;5069684;28;20518;-50
2022/08/26 02:24:53;;;;;;;14.87;7.43;;;19.80;99.90;;;;;;5084345;28;20548;-50
2022/08/26 02:27:22;;;;;;;12.83;9.13;;;19.80;99.90;;;;;;5067635;28;20496;-50
2022/08/26 02:29:55;;;;;;;12.23;7.90;;;19.80;99.90;;;;;;5071683;28;20554;-50
2022/08/26 02:32:22;;;;;;;10.93;7.70;;;19.70;99.90;;;;;;5075991;28;20504;-50
2022/08/26 02:34:49;;;;;;;14.17;8.47;;;19.70;99.90;;;;;;5066988;28;20946;-50
2022/08/26 02:37:16;;;;;;;15.37;9.63;;;19.70;99.90;;;;;;5070067;28;20457;-49
2022/08/26 02:39:43;;;;;;;12.43;7.60;;;19.70;99.90;;;;;;5068944;28;20484;-50
2022/08/26 02:42:10;;;;;;;15.23;8.77;;;19.70;99.90;;;;;;5064103;28;20462;-49
2022/08/26 02:44:37;;;;;;;18.03;8.63;;;19.70;99.90;;;;;;5079885;28;20855;-49
2022/08/26 02:47:07;;;;;;;19.03;9.30;;;19.70;99.90;;;;;;5078057;28;20470;-50
2022/08/26 02:49:33;;;;;;;15.83;7.77;;;19.70;99.90;;;;;;5064210;28;20477;-49
2022/08/26 02:52:00;;;;;;;16.77;9.60;;;19.60;99.90;;;;;;5066532;28;20452;-50
2022/08/26 02:54:27;;;;;;;9.87;7.93;;;19.60;99.90;;;;;;5070637;28;20457;-49
2022/08/26 02:56:54;;;;;;;11.43;8.00;;;19.60;99.90;;;;;;5088202;28;20883;-50
2022/08/26 02:59:20;;;;;;;14.43;9.10;;;19.60;99.90;;;;;;5071159;28;20483;-49
2022/08/26 03:01:48;;;;;;;12.23;8.30;;;19.60;99.90;;;;;;5073745;28;20456;-49
2022/08/26 03:04:17;;;;;;;17.40;8.67;;;19.60;99.90;;;;;;5072761;28;20794;-50
2022/08/26 03:06:43;;;;;;;15.63;8.23;;;19.60;99.90;;;;;;5072278;28;20457;-50
2022/08/26 03:09:10;;;;;;;13.30;8.63;;;19.50;99.90;;;;;;5066120;28;20481;-49
2022/08/26 03:11:38;;;;;;;17.97;8.87;;;19.50;99.90;;;;;;5063631;28;20460;-49
2022/08/26 03:14:05;;;;;;;11.50;9.10;;;19.50;99.90;;;;;;5065189;28;20958;-50
2022/08/26 03:16:32;;;;;;;22.43;7.70;;;19.50;99.90;;;;;;5067413;28;20865;-50
2022/08/26 03:19:00;;;;;;;12.87;9.60;;;19.50;99.90;;;;;;5071448;28;20569;-50
2022/08/26 03:21:28;;;;;;;17.17;8.70;;;19.50;99.90;;;;;;5068408;28;20519;-49
2022/08/26 03:23:55;;;;;;;25.30;8.80;;;19.50;99.90;;;;;;5062895;28;20510;-48
2022/08/26 03:26:21;;;;;;;12.37;8.47;;;19.50;99.90;;;;;;5071474;28;20515;-50
2022/08/26 03:31:32;;;;;;;15.77;7.80;;;19.40;99.90;;;;;;5068600;28;20444;-48
2022/08/26 03:34:00;;;;;;;15.37;8.80;;;19.40;99.90;;;;;;5068170;28;20515;-49
2022/08/26 03:36:28;;;;;;;9.60;8.10;;;19.40;99.90;;;;;;5065516;28;20462;-49
2022/08/26 03:38:54;;;;;;;16.90;8.20;;;19.40;99.90;;;;;;5075757;28;20477;-49
2022/08/26 03:41:22;;;;;;;15.20;8.70;;;19.40;99.90;;;;;;5067164;28;20465;-49
2022/08/26 03:43:49;;;;;;;13.80;9.10;;;19.40;99.90;;;;;;5071756;28;20464;-49
2022/08/26 03:46:18;;;;;;;15.13;9.27;;;19.40;99.90;;;;;;5077120;28;21054;-48
2022/08/26 03:48:44;;;;;;;19.07;9.20;;;19.40;99.90;;;;;;5074505;28;20563;-50
2022/08/26 03:51:13;;;;;;;12.07;9.30;;;19.40;99.90;;;;;;5060894;28;20478;-50
2022/08/26 03:53:41;;;;;;;17.60;8.07;;;19.40;99.90;;;;;;5065803;28;20518;-49
2022/08/26 03:56:07;;;;;;;14.60;9.30;;;19.40;99.90;;;;;;5067004;28;20460;-49
2022/08/26 03:58:35;;;;;;;14.87;9.30;;;19.40;99.90;;;;;;5062408;28;20450;-49
2022/08/26 04:01:02;;;;;;;18.17;8.93;;;19.30;99.90;;;;;;5060663;28;20493;-49
2022/08/26 04:06:13;;;;;;;12.77;9.33;;;19.30;99.90;;;;;;5067164;28;20459;-49
2022/08/26 04:08:41;;;;;;;12.50;8.57;;;19.30;99.90;;;;;;5062852;28;20993;-50
2022/08/26 04:11:08;;;;;;;13.93;8.33;;;19.30;99.90;;;;;;5063340;28;20468;-50
2022/08/26 04:13:34;;;;;;;18.90;8.43;;;19.30;99.90;;;;;;5060162;28;20544;-50
2022/08/26 04:16:01;;;;;;;16.83;9.77;;;19.30;99.90;;;;;;5077534;28;20465;-50
2022/08/26 04:18:30;;;;;;;13.27;8.90;;;19.30;99.90;;;;;;5062932;28;20454;-56
2022/08/26 04:20:57;;;;;;;14.30;9.70;;;19.30;99.90;;;;;;5074774;28;20508;-57
2022/08/26 04:23:23;;;;;;;14.23;9.23;;;19.30;99.90;;;;;;5071204;28;20456;-56
2022/08/26 04:25:51;;;;;;;12.80;7.90;;;19.30;99.90;;;;;;5075171;28;20493;-55
2022/08/26 04:28:18;;;;;;;16.67;9.90;;;19.30;99.90;;;;;;5067848;28;20477;-57
2022/08/26 04:30:45;;;;;;;20.70;9.90;;;19.30;99.90;;;;;;5070522;28;20484;-49
2022/08/26 04:33:12;;;;;;;17.43;9.50;;;19.40;99.90;;;;;;5069457;28;20833;-49
2022/08/26 04:35:39;;;;;;;16.93;8.63;;;19.30;99.90;;;;;;5062832;28;21045;-48
2022/08/26 04:38:05;;;;;;;15.23;10.40;;;19.30;99.90;;;;;;5077447;28;20460;-48
2022/08/26 04:40:32;;;;;;;19.20;9.60;;;19.30;99.90;;;;;;5076396;28;20520;-48
2022/08/26 04:43:01;;;;;;;18.50;9.23;;;19.30;99.90;;;;;;5070045;28;20519;-49
2022/08/26 04:45:27;;;;;;;13.77;9.97;;;19.30;99.90;;;;;;5064388;28;20544;-48
2022/08/26 04:47:55;;;;;;;18.33;9.43;;;19.40;99.90;;;;;;5068122;28;20465;-48
2022/08/26 04:50:24;;;;;;;21.93;8.70;;;19.40;99.90;;;;;;5068158;28;20472;-48
2022/08/26 04:52:51;;;;;;;27.93;10.10;;;19.40;99.90;;;;;;5065337;28;20518;-49
2022/08/26 04:55:17;;;;;;;15.30;9.90;;;19.40;99.90;;;;;;5069949;28;20514;-50
2022/08/26 04:57:44;;;;;;;20.43;10.63;;;19.40;99.90;;;;;;5065322;28;20864;-48
2022/08/26 05:00:14;;;;;;;16.97;10.57;;;19.50;99.90;;;;;;5064453;28;20481;-48
2022/08/26 05:02:40;;;;;;;12.00;10.43;;;19.50;99.90;;;;;;5074361;28;20463;-50
2022/08/26 05:05:08;;;;;;;11.40;10.23;;;19.50;99.90;;;;;;5070213;28;20842;-48
2022/08/26 05:07:35;;;;;;;13.17;10.70;;;19.50;99.90;;;;;;5066717;28;20862;-49
2022/08/26 05:10:02;;;;;;;22.67;11.50;;;19.50;99.90;;;;;;5072619;28;20840;-49
2022/08/26 05:12:29;;;;;;;24.13;10.67;;;19.50;99.90;;;;;;5064012;28;20465;-50
2022/08/26 05:14:55;;;;;;;17.33;10.07;;;19.50;99.90;;;;;;5064241;28;20515;-51
2022/08/26 05:17:23;;;;;;;17.30;10.80;;;19.60;99.90;;;;;;5066806;28;20522;-49
2022/08/26 05:19:50;;;;;;;14.70;11.07;;;19.60;99.90;;;;;;5072586;28;20476;-50
2022/08/26 05:22:17;;;;;;;22.27;10.93;;;19.60;99.90;;;;;;5066906;28;20461;-50
2022/08/26 05:24:45;;;;;;;20.00;11.10;;;19.60;99.90;;;;;;5061956;28;20522;-50
2022/08/26 05:27:12;;;;;;;18.60;11.37;;;19.60;99.90;;;;;;5071565;28;20471;-50
2022/08/26 05:29:39;;;;;;;26.53;11.13;;;19.60;99.90;;;;;;5070104;28;20484;-50
2022/08/26 05:32:06;;;;;;;16.73;10.63;;;19.60;99.90;;;;;;5075204;28;20464;-50
2022/08/26 05:34:36;;;;;;;17.20;10.10;;;19.70;99.90;;;;;;5067132;28;21127;-51
2022/08/26 05:37:03;;;;;;;13.53;10.20;;;19.70;99.90;;;;;;5069512;28;20544;-50
2022/08/26 05:39:32;;;;;;;17.60;11.43;;;19.80;99.90;;;;;;5069481;28;20871;-50
2022/08/26 05:41:59;;;;;;;12.80;11.13;;;19.70;99.90;;;;;;5068171;28;20465;-49
2022/08/26 05:44:25;;;;;;;18.57;11.03;;;19.80;99.90;;;;;;5069021;28;20461;-50
2022/08/26 05:46:52;;;;;;;12.17;10.10;;;19.80;99.90;;;;;;5068555;28;20466;-50
2022/08/26 05:49:19;;;;;;;17.80;10.73;;;19.90;99.90;;;;;;5061890;28;20488;-50
2022/08/26 05:51:47;;;;;;;18.07;10.90;;;19.90;99.90;;;;;;5073530;28;20464;-50
2022/08/26 05:54:14;;;;;;;19.57;10.97;;;20.00;99.90;;;;;;5070087;28;20460;-50
2022/08/26 05:56:40;;;;;;;17.40;11.67;;;20.00;99.90;;;;;;5071076;28;20535;-50
2022/08/26 05:59:12;;;;;;;18.30;11.60;;;20.10;99.90;;;;;;5063199;28;20477;-50
2022/08/26 06:01:39;;;;;;;17.77;9.57;;;20.10;99.90;;;;;;5069062;28;20463;-50
2022/08/26 06:04:06;;;;;;;14.30;10.53;;;20.10;99.90;;;;;;5069470;28;20456;-50
2022/08/26 06:06:39;;;;;;;17.30;10.73;;;20.20;99.90;;;;;;5073400;28;20560;-50
2022/08/26 06:09:09;;;;;;;13.10;10.27;;;20.30;99.90;;;;;;5071852;28;20519;-50
2022/08/26 06:11:36;;;;;;;22.93;10.37;;;20.30;99.90;;;;;;5071865;28;20453;-50
2022/08/26 06:14:04;;;;;;;18.30;10.00;;;20.40;99.90;;;;;;5062424;28;20465;-50
2022/08/26 06:16:33;;;;;;;19.03;10.40;;;20.40;99.90;;;;;;5082135;28;20497;-50
2022/08/26 06:19:01;;;;;;;14.97;10.10;;;20.50;99.90;;;;;;5074081;28;20505;-50
2022/08/26 06:21:30;;;;;;;16.43;10.47;;;20.60;99.90;;;;;;5069219;28;20457;-50
2022/08/26 06:26:49;;;;;;;20.90;10.50;;;20.70;99.90;;;;;;5071598;28;21134;-49
2022/08/26 06:29:16;;;;;;;27.93;10.97;;;20.70;99.90;;;;;;5068561;28;20535;-50
2022/08/26 06:31:42;;;;;;;19.23;11.23;;;20.80;99.90;;;;;;5054206;28;20465;-50
2022/08/26 06:34:09;;;;;;;10.77;9.40;;;20.90;99.90;;;;;;5053422;28;20862;-50
2022/08/26 06:36:36;;;;;;;15.60;10.70;;;21.00;99.90;;;;;;5065347;28;20518;-51
2022/08/26 06:39:06;;;;;;;16.33;10.60;;;21.00;99.90;;;;;;5071833;28;20538;-50
2022/08/26 06:41:33;;;;;;;19.00;10.93;;;21.10;99.90;;;;;;5068909;28;20461;-50
2022/08/26 06:44:01;;;;;;;15.67;10.57;;;21.20;99.90;;;;;;5071652;28;20552;-49
2022/08/26 06:46:28;;;;;;;23.13;11.13;;;21.30;99.90;;;;;;5065701;28;20460;-50
2022/08/26 06:48:56;;;;;;;15.20;10.30;;;21.40;99.90;;;;;;5065864;28;20492;-50
2022/08/26 06:51:25;;;;;;;18.93;9.70;;;21.50;99.90;;;;;;5070423;28;20456;-50
2022/08/26 06:53:54;;;;;;;18.73;9.80;;;21.60;99.90;;;;;;5067927;28;20955;-50
2022/08/26 06:56:23;;;;;;;19.33;10.67;;;21.70;21.50;;;;;;5065084;28;20466;-51
2022/08/26 06:58:50;;;;;;;23.40;10.60;;;21.80;29.40;;;;;;5071755;28;20998;-51
2022/08/26 07:01:21;;;;;;;14.30;9.93;;;21.80;36.80;;;;;;5061487;28;20464;-51
2022/08/26 07:03:49;;;;;;;17.40;9.50;;;21.90;45.20;;;;;;5078899;28;20487;-50
2022/08/26 07:06:17;;;;;;;20.27;10.63;;;22.00;55.70;;;;;;5067673;28;20462;-50
2022/08/26 07:08:43;;;;;;;20.83;9.13;;;22.10;65.30;;;;;;5061491;28;20521;-50
2022/08/26 07:11:11;;;;;;;22.23;9.20;;;22.30;76.40;;;;;;5070918;28;20499;-49
2022/08/26 07:13:38;;;;;;;29.83;10.87;;;22.40;89.60;;;;;;5079614;28;20507;-50
2022/08/26 07:16:05;;;;;;;22.23;8.70;;;22.50;99.90;;;;;;5070208;28;20537;-50
2022/08/26 07:18:35;;;;;;;21.80;9.17;;;22.70;99.90;;;;;;5079884;28;20937;-50
2022/08/26 07:21:01;;;;;;;25.03;10.30;;;22.80;99.90;;;;;;5077376;28;20460;-50
2022/08/26 07:23:28;;;;;;;24.97;9.50;;;22.90;99.90;;;;;;5059969;28;20496;-50
2022/08/26 07:25:55;;;;;;;25.07;9.27;;;23.00;99.90;;;;;;5066390;28;20566;-50
2022/08/26 07:28:21;;;;;;;25.83;8.53;;;23.10;99.90;;;;;;5085686;28;20551;-50
2022/08/26 07:30:49;;;;;;;39.77;9.60;;;23.30;99.90;;;;;;5081137;28;20489;-49
2022/08/26 07:33:16;;;;;;;24.40;9.30;;;23.30;99.90;;;;;;5075704;28;20441;-50
2022/08/26 07:35:44;;;;;;;25.37;10.23;;;23.50;99.90;;;;;;5060719;28;20500;-49
2022/08/26 07:38:11;;;;;;;21.90;8.83;;;23.60;99.90;;;;;;5065538;28;20510;-51
2022/08/26 07:40:39;;;;;;;24.70;9.20;;;23.70;99.90;;;;;;5062187;28;20474;-49
2022/08/26 07:43:06;;;;;;;21.83;8.53;;;23.80;86.00;;;;;;5055938;28;20458;-49
2022/08/26 07:45:33;;;;;;;30.40;10.33;;;23.80;81.10;;;;;;5067927;28;20456;-49
2022/08/26 07:48:00;;;;;;;18.00;8.20;;;23.90;21.90;;;;;;5065647;28;20457;-49
2022/08/26 07:50:26;;;;;;;18.40;8.70;;;24.00;25.40;;;;;;5067592;28;20534;-50
2022/08/26 07:52:55;;;;;;;30.10;9.07;;;24.10;32.10;;;;;;5061888;28;20505;-50
2022/08/26 07:55:22;;;;;;;26.67;9.20;;;24.10;50.00;;;;;;5059457;28;20464;-50
2022/08/26 07:57:50;;;;;;;25.90;7.63;;;24.30;55.80;;;;;;5061933;28;20465;-50
2022/08/26 08:00:17;;;;;;;26.00;9.60;;;24.40;52.40;;;;;;5063802;28;20480;-49
2022/08/26 08:02:44;;;;;;;30.83;8.17;;;24.50;55.70;;;;;;5064256;28;21024;-48
2022/08/26 08:05:11;;;;;;;21.23;6.90;;;24.50;74.40;;;;;;5073264;28;20463;-50
2022/08/26 08:07:39;;;;;;;19.87;8.10;;;24.60;73.90;;;;;;5082195;28;20448;-48
2022/08/26 08:10:09;;;;;;;22.37;7.73;;;24.70;75.00;;;;;;5069462;28;20517;-48
2022/08/26 08:12:36;;;;;;;28.67;7.30;;;24.80;83.40;;;;;;5067418;28;20464;-49
2022/08/26 08:15:03;;;;;;;30.63;6.37;;;24.90;92.50;;;;;;5063421;28;20798;-49
2022/08/26 08:17:30;;;;;;;18.83;7.23;;;25.00;99.90;;;;;;5070899;28;20442;-49
2022/08/26 08:19:56;;;;;;;21.77;7.07;;;25.10;99.90;;;;;;5069797;28;20475;-49
2022/08/26 08:22:23;;;;;;;25.63;8.40;;;25.20;99.90;;;;;;5069234;28;20457;-48
2022/08/26 08:24:50;;;;;;;22.67;8.37;;;25.40;99.90;;;;;;5063493;28;20484;-49
2022/08/26 08:27:18;;;;;;;21.17;7.73;;;25.50;99.90;;;;;;5068956;28;20460;-49
2022/08/26 08:29:46;;;;;;;17.30;7.67;;;25.70;99.90;;;;;;5065218;28;20528;-49
2022/08/26 08:32:13;;;;;;;30.60;7.40;;;25.80;99.90;;;;;;5065881;28;20471;-49
2022/08/26 08:34:39;;;;;;;22.60;8.10;;;26.00;99.90;;;;;;5070106;28;20835;-49
2022/08/26 08:37:07;;;;;;;25.83;7.70;;;26.20;99.90;;;;;;5070286;28;20579;-49
2022/08/26 08:39:33;;;;;;;20.10;7.20;;;26.20;99.90;;;;;;5064061;28;20531;-49
2022/08/26 08:42:28;;;;;;;31.37;8.10;;;26.30;99.90;;;;;;5064663;28;20837;-49
2022/08/26 08:45:01;;;;;;;25.27;7.17;;;26.40;99.90;;;;;;5063791;28;20449;-49
2022/08/26 08:47:33;;;;;;;24.53;7.73;;;26.50;99.90;;;;;;5067496;28;21020;-49
2022/08/26 08:50:10;;;;;;;35.40;8.00;;;26.60;99.90;;;;;;5063966;28;20531;-49
2022/08/26 08:52:38;;;;;;;25.23;6.70;;;26.80;99.90;;;;;;5072274;28;20938;-49
2022/08/26 08:55:07;;;;;;;25.53;8.13;;;27.00;99.90;;;;;;5054729;28;20527;-49
2022/08/26 08:57:56;;;;;;;19.53;6.60;;;27.20;99.90;;;;;;5055502;28;20507;-49
2022/08/26 09:00:24;;;;;;;23.97;6.20;;;27.40;81.20;;;;;;5074909;28;20471;-49
2022/08/26 09:02:53;;;;;;;35.57;6.30;;;27.50;51.30;;;;;;5068561;28;20460;-49
2022/08/26 09:05:22;;;;;;;33.17;7.13;;;27.60;73.80;;;;;;5072628;28;20461;-50
2022/08/26 09:07:55;;;;;;;19.40;6.07;;;27.60;65.90;;;;;;5073645;28;20491;-49
2022/08/26 09:10:36;;;;;;;36.07;7.80;;;27.50;55.30;;;;;;5067953;28;20486;-49
2022/08/26 09:13:06;;;;;;;40.80;9.00;;;27.40;57.60;;;;;;5079268;28;20444;-49
2022/08/26 09:15:42;;;;;;;26.27;7.23;;;27.40;46.20;;;;;;5071797;28;20461;-49
2022/08/26 09:18:23;;;;;;;31.30;6.77;;;27.30;48.70;;;;;;5072193;28;20956;-49
2022/08/26 09:20:55;;;;;;;22.13;6.70;;;27.30;57.40;;;;;;5064056;28;20476;-49
2022/08/26 09:23:22;;;;;;;23.17;6.57;;;27.30;51.00;;;;;;5072024;28;20561;-48
2022/08/26 09:25:51;;;;;;;20.23;6.63;;;27.30;42.00;;;;;;5067304;28;21021;-49
2022/08/26 09:28:22;;;;;;;34.57;6.93;;;27.30;41.40;;;;;;5073734;28;20510;-48
2022/08/26 09:31:09;;;;;;;20.13;6.97;;;27.40;55.10;;;;;;5071636;28;21059;-49
2022/08/26 09:33:36;;;;;;;32.03;7.23;;;27.40;57.00;;;;;;5070409;28;20456;-50
2022/08/26 09:36:21;;;;;;;22.23;6.87;;;27.50;57.00;;;;;;5066715;28;20516;-49
2022/08/26 09:38:48;;;;;;;25.83;7.13;;;27.60;75.20;;;;;;5071165;28;20456;-49
2022/08/26 09:41:30;;;;;;;28.70;8.03;;;27.80;79.60;;;;;;5071288;28;20502;-49
2022/08/26 09:44:17;;;;;;;19.80;6.97;;;28.10;84.90;;;;;;5060775;28;20475;-49
2022/08/26 09:46:55;;;;;;;23.57;6.37;;;28.00;85.30;;;;;;5067473;28;20469;-49
2022/08/26 09:49:26;;;;;;;34.53;6.80;;;27.70;90.20;;;;;;5064991;28;20484;-49
2022/08/26 09:52:21;;;;;;;23.50;7.20;;;27.70;96.00;;;;;;5072491;28;20455;-49
2022/08/26 09:55:00;;;;;;;22.73;6.33;;;27.80;93.90;;;;;;5040492;28;20461;-49
2022/08/26 09:57:29;;;;;;;30.23;6.77;;;27.90;91.30;;;;;;5065464;28;20475;-49
2022/08/26 09:59:56;;;;;;;44.17;7.43;;;27.80;98.50;;;;;;5069304;28;20523;-49
2022/08/26 10:02:35;;;;;;;33.63;6.87;;;27.80;96.00;;;;;;5069675;28;20464;-49
2022/08/26 10:05:07;;;;;;;26.70;6.60;;;27.80;94.70;;;;;;5061308;28;20883;-48
2022/08/26 10:07:43;;;;;;;18.30;6.80;;;27.70;99.90;;;;;;5067271;28;20462;-49
2022/08/26 10:10:16;;;;;;;22.20;6.40;;;27.60;92.50;;;;;;5063203;28;20486;-49
2022/08/26 10:12:51;;;;;;;21.10;6.70;;;27.60;89.70;;;;;;5067174;28;20464;-48
2022/08/26 10:15:19;;;;;;;19.97;6.60;;;27.60;91.90;;;;;;5066633;28;20464;-49
2022/08/26 10:17:52;;;;;;;28.00;7.43;;;27.60;90.40;;;;;;5064238;28;20482;-49
2022/08/26 10:20:23;;;;;;;20.03;7.03;;;27.80;95.40;;;;;;5079245;28;21124;-49
2022/08/26 10:22:55;;;;;;;18.87;6.97;;;28.00;99.80;;;;;;5076854;28;21001;-48
2022/08/26 10:25:27;;;;;;;24.97;6.97;;;28.10;99.30;;;;;;5066719;28;20915;-49
2022/08/26 10:28:03;;;;;;;22.30;6.90;;;28.20;99.90;;;;;;5070020;28;20541;-49
2022/08/26 10:30:33;;;;;;;31.83;7.97;;;28.30;99.90;;;;;;5057287;22;20491;-51
2022/08/26 10:33:05;;;;;;;31.30;7.83;;;28.30;99.90;;;;;;5032610;28;20975;-51
2022/08/26 10:35:35;;;;;;;21.30;7.77;;;28.30;98.50;;;;;;5025456;28;20458;-51
2022/08/26 10:38:07;;;;;;;34.97;6.90;;;28.30;97.60;;;;;;5032112;28;20470;-51
2022/08/26 10:40:41;;;;;;;12.83;5.30;;;28.40;99.90;;;;;;5028151;28;20478;-51
2022/08/26 10:43:12;;;;;;;23.03;7.90;;;28.40;99.90;;;;;;5023726;28;20461;-51
2022/08/26 10:45:43;;;;;;;24.87;6.80;;;28.40;99.90;;;;;;5033186;28;20465;-51
2022/08/26 10:48:16;;;;;;;34.83;6.57;;;28.40;99.90;;;;;;5038792;28;20443;-53
2022/08/26 10:50:46;;;;;;;30.20;7.57;;;28.40;99.90;;;;;;5031687;28;20559;-52
2022/08/26 10:53:17;;;;;;;19.43;7.10;;;28.30;99.90;;;;;;5027351;28;20458;-51
2022/08/26 10:55:52;;;;;;;44.53;6.30;;;28.20;99.90;;;;;;5025001;28;20520;-53
2022/08/26 10:58:31;;;;;;;26.07;7.07;;;28.10;99.90;;;;;;5022941;28;20892;-51
2022/08/26 11:03:56;;;;;;;31.47;7.00;;;28.10;99.90;;;;;;5023327;28;20822;-51
2022/08/26 11:06:24;;;;;;;25.77;6.57;;;28.10;99.90;;;;;;5023721;28;20549;-51
2022/08/26 11:08:53;;;;;;;42.67;6.33;;;28.10;99.90;;;;;;5036322;28;20497;-51
2022/08/26 11:11:49;;;;;;;24.50;5.73;;;28.10;99.90;;;;;;5028947;28;20483;-52
2022/08/26 11:14:32;;;;;;;18.83;6.10;;;28.00;99.90;;;;;;5012631;28;20463;-52
2022/08/26 11:17:00;;;;;;;33.17;7.03;;;28.00;99.90;;;;;;5026980;28;20479;-51
2022/08/26 11:20:00;;;;;;;23.90;7.70;;;27.90;99.90;;;;;;5029629;28;20508;-52
2022/08/26 11:22:29;;;;;;;21.13;6.43;;;27.90;99.90;;;;;;5028542;28;20459;-51
2022/08/26 11:25:06;;;;;;;35.43;7.47;;;27.80;98.10;;;;;;5025024;28;20459;-52
2022/08/26 11:28:04;;;;;;;24.20;6.77;;;27.80;97.90;;;;;;5029366;28;20508;-51
2022/08/26 11:30:47;;;;;;;17.23;6.37;;;27.80;99.90;;;;;;5024605;28;20913;-51
2022/08/26 11:33:53;;;;;;;16.80;7.00;;;27.80;99.90;;;;;;5026218;28;20458;-51
2022/08/26 11:36:49;;;;;;;18.60;7.10;;;27.70;99.90;;;;;;5031541;28;20450;-52
2022/08/26 11:39:23;;;;;;;26.93;7.70;;;27.50;99.90;;;;;;5026999;28;20513;-52
2022/08/26 11:41:52;;;;;;;23.87;7.47;;;27.30;39.80;;;;;;5026679;28;20462;-51
2022/08/26 11:44:21;;;;;;;14.00;5.43;;;26.90;45.40;;;;;;5026970;28;20458;-51
2022/08/26 11:46:58;;;;;;;16.60;4.90;;;26.40;59.20;;;;;;5027143;28;20608;-52
2022/08/26 11:49:25;;;;;;;13.73;5.03;;;25.90;63.90;;;;;;5028675;28;20556;-51
2022/08/26 11:52:07;;;;;;;9.93;4.10;;;25.60;97.60;;;;;;5021551;28;20540;-51
2022/08/26 11:54:34;;;;;;;17.03;4.93;;;25.00;99.90;;;;;;5025045;28;20512;-51
2022/08/26 11:57:01;;;;;;;18.70;3.93;;;24.30;99.90;;;;;;5026960;28;20528;-51
2022/08/26 11:59:35;;;;;;;13.53;4.20;;;23.80;99.90;;;;;;5029157;28;20801;-51
2022/08/26 12:02:02;;;;;;;11.70;4.03;;;23.30;99.90;;;;;;5025803;28;20463;-51
2022/08/26 12:04:31;;;;;;;17.93;6.03;;;23.00;99.90;;;;;;5031437;28;20497;-51
2022/08/26 12:07:01;;;;;;;24.80;5.30;;;22.70;75.70;;;;;;5022628;28;20496;-51
2022/08/26 12:09:31;;;;;;;15.93;4.80;;;21.90;22.00;;;;;;5024619;28;21026;-51
2022/08/26 12:12:12;;;;;;;7.03;4.27;;;21.30;99.90;;;;;;5026253;28;20575;-51
2022/08/26 12:14:38;;;;;;;13.73;5.47;;;20.70;99.90;;;;;;5024407;28;21224;-52
2022/08/26 12:17:13;;;;;;;10.13;4.20;;;20.30;99.90;;;;;;5019993;28;20459;-53
2022/08/26 12:19:39;;;;;;;14.23;5.30;;;20.00;68.80;;;;;;5028045;28;21069;-52
2022/08/26 12:22:24;;;;;;;8.77;4.50;;;19.80;29.40;;;;;;5024655;28;20451;-52
2022/08/26 12:24:53;;;;;;;11.50;4.30;;;19.70;99.90;;;;;;5026030;28;20458;-52
2022/08/26 12:27:23;;;;;;;13.03;6.30;;;19.70;99.90;;;;;;5026305;28;20467;-52
2022/08/26 12:30:07;;;;;;;22.50;6.03;;;19.80;99.90;;;;;;5021891;28;20548;-52
2022/08/26 12:32:34;;;;;;;10.90;5.23;;;19.90;99.90;;;;;;5025560;28;20504;-52
2022/08/26 12:35:02;;;;;;;18.00;5.20;;;19.90;99.90;;;;;;5022768;28;20460;-53
2022/08/26 12:37:35;;;;;;;15.50;6.13;;;19.90;99.90;;;;;;5019804;28;20463;-52
2022/08/26 12:40:34;;;;;;;7.37;4.13;;;20.00;99.90;;;;;;5031688;28;20490;-51
2022/08/26 12:43:03;;;;;;;8.37;3.57;;;20.00;99.90;;;;;;5028104;28;20459;-52
2022/08/26 12:45:32;;;;;;;12.43;5.03;;;19.90;99.90;;;;;;5027082;28;20501;-52
2022/08/26 12:48:01;;;;;;;9.33;4.03;;;20.00;99.90;;;;;;5034786;28;20434;-52
2022/08/26 12:50:30;;;;;;;7.33;3.60;;;20.00;99.90;;;;;;5029625;28;20533;-52
2022/08/26 12:53:02;;;;;;;8.20;3.90;;;20.00;99.90;;;;;;5029809;28;20872;-51
2022/08/26 12:55:40;;;;;;;9.23;3.53;;;20.10;99.90;;;;;;5029439;28;20982;-53
2022/08/26 12:58:22;;;;;;;4.07;3.47;;;20.10;99.90;;;;;;5034878;28;20516;-52
2022/08/26 13:00:49;;;;;;;7.20;4.07;;;20.20;99.90;;;;;;5029206;28;20479;-53